San Diego Classic - Holiday Cup - 125 Miles

Station: 125 - T Race

Distance: 125 Miles

Release: 05-Nov-2019 08:00

Weather Release:    Arrival:

Wind at Release:     Wind at Arrival:

Temp at Release: °    Temp at Arrival: °

Lofts: 85

Birds: 306

Clocked: 299

Good Luck to Everyone!
Drops Pos Breeder Pigeon Name Color Sex Ent Arrival Speed To Win Elg PdRaceAvg Speed
1 Mike Chastang - CA 1605-AU19-SD BB H 1 10:25:29.90 1512.045 00:00:00 Yes
2 Mc Knight & Mellinger - CA 1319-AU19-JEDD BB H 1 10:25:32.00 1511.681 00:00:02 Yes
3 Eddie And Gene - CA 0031-AU19-GENE BC H 1 10:25:32.30 1511.629 00:00:02 Yes
4 Alma Missiles Castro - AZ 24009-AU19-MISS BB H 1 10:25:32.80 1511.543 00:00:03 Yes
4 Any Given Day-Quest - TX 19068-AU19-AGD BB H 1 10:25:32.80 1511.543 00:00:03 Yes
6 Los Banditos - CA 1023-AU19-OAKS BB H 1 10:25:33.40 1511.439 00:00:04 Yes
6 Duane Gragg - CA 0103-AU19-AUB BB H 1 10:25:33.40 1511.439 00:00:04 Yes
8 Hugo Avila Loft - CA 1504-AU19-SD BBSP H 1 10:25:33.70 1511.387 00:00:04 Yes
9 Genesis Syndicate Loft - AZ 0011-AU19-GENS BBSP H 1 10:25:34.20 1511.300 00:00:04 Yes
10 Sterchi & Bieche - CA 9222-AU19-BIEC BC H 1 10:25:34.50 1511.248 00:00:05 Yes
11 Ron Pairan - OH 0455-AU19-LFO BC H 1 10:25:36.00 1510.989 00:00:06 Yes
12 Mesopotamia - MN 11351-AU19-ARPU BB H 1 10:25:36.50 1510.903 00:00:07 Yes
12 J & M Partridge Loft - CA 1644-AU19-PASO BC H 1 10:25:36.50 1510.903 00:00:07 Yes
14 Bryan & Domenick - PA 0798-AU19-IVAC BC H 1 10:25:36.60 1510.885 00:00:07 Yes
15 Michael Groe - CA 0058-AU19-JEDD 653 BB H 1 10:25:36.80 1510.851 00:00:07 Yes
16 Mike Belus - CA 0702-AU19-BPRC RC H 1 10:25:37.30 1510.764 00:00:07 Yes
17 Relinski & Schilling - IN 5013-AU19-HAMM BC H 1 10:25:38.40 1510.574 00:00:09 Yes
17 J & M Partridge Loft - CA 1748-AU19-PASO DC H 2 10:25:38.40 1510.574 00:00:09 Yes
19 Jenkins Racing - CA 0795-AU19-JR Jenkins Special BB H 1 10:25:39.30 1510.418 00:00:09 Yes
20 Team Phoenix - AZ 2039-AU19-SUNB BCWF H 1 10:25:39.80 1510.332 00:00:10 Yes
21 Kessler Family Loft - OR 0044-AU19-NRK 180 BB H 1 10:25:40.30 1510.246 00:00:10 Yes
22 Mc Knight & Mellinger - CA 0734-AU19-JEDD BB H 2 10:25:40.60 1510.194 00:00:11 Yes
23 Michael Groe - CA 0056-AU19-JEDD 1100726x11503 BC H 2 10:25:41.40 1510.056 00:00:11 Yes
24 Mc Knight & Mellinger - CA 0727-AU19-JEDD BB H 3 10:25:41.70 1510.004 00:00:12 Yes
25 Flying D Loft - TX 1034-AU19-FLYD Adl 173 /Foys 17191 BB H 1 10:25:42.20 1509.917 00:00:12 Yes
26 Mike Kelly - CA 3345-AU19-ARC BB H 1 10:25:43.40 1509.710 00:00:14 Yes
27 Stephen Brothers - FL 4454-AU19-GHC BC H 1 10:25:44.10 1509.589 00:00:14 Yes
28 Drama Queen Loft - TX 0933-AU19-GCI BB H 1 10:25:49.10 1508.727 00:00:19 Yes
29 Hugo Avila Loft - CA 1517-AU19-SD BBWF H 2 10:25:50.60 1508.468 00:00:21 Yes
30 John Fukumoto - HI 0725-AU19-HW BB H 1 10:27:11.30 1494.684 00:01:41 Yes
31 John Karnofel - CA 0028-AU19-KFL Lady Bug Girl BB H 1 10:27:13.10 1494.379 00:01:43 Yes
32 Tim Brandon - CA 15806-AU19-JEDD DC H 1 10:27:13.20 1494.362 00:01:43 Yes
33 Ledet-Gutrz - LA 19039-AU19-LG BC H 1 10:27:14.00 1494.227 00:01:44 Yes
34 Bryan & Domenick - PA 0777-AU19-IVAC BC H 2 10:27:14.70 1494.108 00:01:45 Yes
35 Genesis Syndicate Loft - AZ 0113-AU19-GENS BBSP H 2 10:27:15.30 1494.007 00:01:45 Yes
36 C & D Loft - CA 0053-AU19-PAL BC H 1 10:27:17.00 1493.720 00:01:47 Yes
37 J. Smith & U. Ebright - CA 29510-AU19-JEDD DC H 1 10:27:17.60 1493.618 00:01:48 Yes
37 J. Smith & U. Ebright - CA 29511-AU19-JEDD BB H 2 10:27:17.60 1493.618 00:01:48 Yes
37 Hawaiian Express - CA 0006-AU19-HE BC H 1 10:27:17.60 1493.618 00:01:48 Yes
40 Carlton Kroese-Crazy Al - CO 5674-AU19-CRAZ BB H 1 10:27:18.20 1493.517 00:01:48 Yes
40 Carney/Kravchuck - CT 31693-AU19-AA BB H 1 10:27:18.20 1493.517 00:01:48 Yes
42 O & L De Vries - ON 3028-CU19-OL BB H 1 10:27:18.50 1493.466 00:01:49 Yes
43 Paco Loft - CA 1907-AU19-PACO DC H 1 10:27:19.00 1493.382 00:01:49 Yes
44 Two-Be-Won - NV 19025-AU19-TBW 16002-13009 BB H 1 10:27:19.30 1493.331 00:01:49 Yes
45 Genesis Syndicate Loft - AZ 0108-AU19-GENS BB H 3 10:27:19.80 1493.246 00:01:50 Yes
46 Any Given Day-Quest - TX 19037-AU19-AGD DC H 2 10:27:19.90 1493.230 00:01:50 Yes
46 Hugo Avila Loft - CA 1505-AU19-SD RC H 3 10:27:19.90 1493.230 00:01:50 Yes
48 Drama Queen Loft - TX 0934-AU19-GCI BBSP H 2 10:27:20.30 1493.162 00:01:50 Yes
49 B.C. Weaver - FL 20992-AU19-ARPU BLUE CHECK HEN BC H 1 10:27:20.80 1493.078 00:01:51 Yes
50 Dan Lionello - CA 0066-AU19-SB BBWF H 1 10:27:21.20 1493.010 00:01:51 Yes
51 Milo Garver - CA 1302-AU19-SD RC H 1 10:27:21.60 1492.942 00:01:52 Yes
52 Ron Pairan - OH 0464-AU19-LFO BC H 2 10:27:21.70 1492.926 00:01:52 Yes
52 Mike Chastang - CA 1604-AU19-SD BBWF H 2 10:27:21.70 1492.926 00:01:52 Yes
54 Ron Pairan - OH 0460-AU19-LFO BB H 3 10:27:21.80 1492.909 00:01:52 Yes
55 Hi-Cal Connection - CA 0895-AU19-HICA BB H 1 10:27:22.10 1492.858 00:01:52 Yes
56 Duane Gragg - CA 0985-AU19-KEYH BB H 2 10:27:22.70 1492.757 00:01:53 Yes
56 J. Smith & U. Ebright - CA 29507-AU19-JEDD BB H 3 10:27:22.70 1492.757 00:01:53 Yes
58 Eddie And Gene - CA 0008-AU19-GENE BBWF H 2 10:27:22.80 1492.740 00:01:53 Yes
58 John Karnofel - CA 0024-AU19-KFL Dixie Loo Hen BC H 2 10:27:22.80 1492.740 00:01:53 Yes
58 Tom Cano Family - CA 0940-AU19-SD GRIZ H 1 10:27:22.80 1492.740 00:01:53 Yes
61 C L & Patty Gage - TX 0666-AU19-DEN BBSP H 1 10:27:23.10 1492.689 00:01:53 Yes
62 Missiles Castro - AZ 24024-AU19-MISS DCSP H 2 10:27:23.20 1492.672 00:01:53 Yes
63 Tom Cano Family - CA 0908-AU19-SD BB H 2 10:27:23.70 1492.588 00:01:54 Yes
64 Dan & Greg Coury - AZ 0346-AU19-AONE irsh503+peg634 DCWF H 1 10:27:23.80 1492.571 00:01:54 Yes
65 Daniel Chang - CA 10771-AU19-JEDD BC H 1 10:27:24.40 1492.470 00:01:54 Yes
66 Stephen Brothers - FL 4450-AU19-GHC BCPD H 2 10:27:24.70 1492.419 00:01:55 Yes
66 Carlton Kroese-Crazy Al - CO 0418-AU19-BARK BB H 2 10:27:24.70 1492.419 00:01:55 Yes
68 El Dorado Lofts Canada - BC 1963-CU19-CU El Caractacus DKSP H 1 10:27:25.40 1492.301 00:01:56 Yes
69 Farmers Loft - CA 0240-AU19-FARM BBWF H 1 10:27:25.90 1492.217 00:01:56 Yes
70 Ed Dove - CA 0305-AU19-SD BC H 1 10:27:27.10 1492.014 00:01:57 Yes
71 Daniel Chang - CA 10772-AU19-JEDD BB H 2 10:27:27.60 1491.930 00:01:58 Yes
72 Mike Belus - CA 0704-AU19-BPRC BC H 2 10:27:28.20 1491.829 00:01:58 Yes
73 El Dorado Lofts Canada - BC 1975-CU19-CU El Corban BBWF H 2 10:27:28.30 1491.812 00:01:58 Yes
74 Flying D Loft - TX 0263-AU19-FLYD O/L 24212 /Foys 17200 BB H 2 10:27:28.80 1491.728 00:01:59 Yes
75 Hawaiian Express - CA 0001-AU19-HE BC H 2 10:27:28.90 1491.711 00:01:59 Yes
76 Sterchi & Bieche - CA 0988-AU19-SR BB H 2 10:27:29.70 1491.576 00:02:00 Yes
77 Dustin Maxfield - UT 7774-AU19-OGN DC H 1 10:27:30.00 1491.525 00:02:00 Yes
78 Hugo Avila Loft - CA 1516-AU19-SD BB H 4 10:27:35.90 1490.532 00:02:06 Yes
79 Utaz Team - UT 0259-AU19-PSC BB H 1 10:27:44.70 1489.052 00:02:15 Yes
80 Milestone Loft - CA 27715-AU19-JEDD BB H 1 10:28:39.10 1479.970 00:03:09 Yes
81 Mc Knight & Mellinger - CA 0747-AU19-JEDD BB H 4 10:28:45.50 1478.909 00:03:16 Yes
82 Wessel Family Lofts - CA 3053-AU19-ARC BB H 1 10:28:46.00 1478.826 00:03:16 Yes
83 O & L De Vries - ON 3027-CU19-OL BB H 2 10:28:56.50 1477.088 00:03:27 Yes
84 Thormod/Blankenship - NV 31811-AU19-JEDD Vegas Baby BCSP H 1 10:28:58.50 1476.758 00:03:29 Yes
85 Milestone Loft - CA 27732-AU19-JEDD BBWF H 2 10:28:59.00 1476.675 00:03:29 Yes
86 A P C Loft - TX 19258-AU19-APC BB H 1 10:28:59.30 1476.626 00:03:29 Yes
87 Ron Pairan - OH 0448-AU19-LFO BB H 4 10:28:59.40 1476.609 00:03:30 Yes
88 El Dorado Lofts Canada - BC 1980-CU19-CU El Delphini BBWF H 3 10:29:00.00 1476.510 00:03:30 Yes
89 Eddie And Gene - CA 0766-AU19-SD BC H 3 10:29:00.10 1476.494 00:03:30 Yes
90 Missiles Castro - AZ 24031-AU19-MISS BC H 3 10:29:00.40 1476.444 00:03:31 Yes
91 Mike Belus - CA 0703-AU19-BPRC BC H 3 10:29:00.50 1476.427 00:03:31 Yes
92 Team Phoenix - AZ 0250-AU19-SUNB BB H 2 10:29:01.00 1476.345 00:03:31 Yes
93 Dan Lionello - CA 0065-AU19-SB BB H 2 10:29:01.10 1476.328 00:03:31 Yes
94 Dehesa Valley Classic - CA 1677-AU19-SD 12199/14189 BB H 1 10:29:01.30 1476.295 00:03:31 Yes
95 Thormod/Blankenship - NV 31884-AU19-AA Caesars Palace BC H 2 10:29:01.90 1476.196 00:03:32 Yes
96 Dehesa Valley Classic - CA 1667-AU19-SD 16106/1455 BBWF H 2 10:29:02.40 1476.114 00:03:32 Yes
97 Dehesa Valley Classic - CA 1679-AU19-SD 896/0995 BB H 3 10:29:03.20 1475.982 00:03:33 Yes
98 Drama Queen Loft - TX 0936-AU19-GCI BB H 3 10:29:04.40 1475.784 00:03:34 Yes
99 J & M Partridge Loft - CA 1660-AU19-PASO SLT H 3 10:29:04.90 1475.701 00:03:35 Yes
100 Thormod/Blankenship - NV 29383-AU19-AA Flushyou BB H 3 10:29:05.40 1475.619 00:03:35 Yes

There are 297 bird records

Note: These Race Results are unofficial and subject to change until verified by the Race Committee and declared final.